Central Virginia Flyers


Central Virginia Flyers is a 10 member flying club based in Richmond, VA at Hanover County Airport (KOFP). We own N787AT, a 1977 Cessna 172 with 180hp conversion. If you are interested in membership, please contact Brenton at [email protected]


Aviation Digital Data Service (ADDS)

Output produced by METARs form (0431 UTC 16 October 2018)
found at http://aviationweather.gov/metar/data/
 
KOFP 160354Z AUTO 18008KT 10SM OVC090 22/19 A3003 RMK AO2 RAB10E23 SLP167 P0000 T02220189
KRIC 160354Z 21013KT 10SM BKN080 OVC130 23/20 A3003 RMK AO2 PRESFR SLP172 T02280200
KRIC 152347Z 1600/1624 20008KT P6SM SCT100 BKN250 
     FM160700 25009G15KT P6SM VCSH SCT025 OVC060 
     FM161000 02010KT P6SM VCSH BKN040 
     FM161500 06008KT P6SM OVC060